This is the latest recevied weather packets stored in our database for station/object W7TJC. If no packets are shown the sender has not sent any weather packets the latest 10 day(s).
| Time | Temp. | Humidity | Pressure | Rain* | Wind** | Luminosity | Snow |
|---|---|---|---|---|---|---|---|
| 1777933418 | 23.89° C | 52% | 1011.6 hPa | 0 mm | - | 37 W/m² | - |
| 1777933117 | 23.89° C | 54% | 1011.7 hPa | 0 mm | - | 29 W/m² | - |
| 1777932813 | 23.89° C | 56% | 1011.6 hPa | 0 mm | - | 28 W/m² | - |
| 1777932511 | 23.89° C | 54% | 1011.5 hPa | 0 mm | - | 28 W/m² | - |
| 1777932207 | 24.44° C | 55% | 1012 hPa | 0 mm | - | 29 W/m² | - |
| 1777931905 | 25° C | 51% | 1011.8 hPa | 0 mm | - | 36 W/m² | - |
| 1777931601 | 25.56° C | 48% | 1011.7 hPa | 0 mm | - | 505 W/m² | - |
| 1777931297 | 25° C | 49% | 1011.8 hPa | 0 mm | - | 498 W/m² | - |
| 1777930994 | 25.56° C | 48% | 1012.1 hPa | 0 mm | - | 603 W/m² | - |
| 1777930690 | 23.89° C | 52% | 1011.9 hPa | 0 mm | - | 583 W/m² | - |
| 1777930387 | 24.44° C | 50% | 1011.7 hPa | 0 mm | - | 540 W/m² | - |
| 1777930084 | 24.44° C | 52% | 1011.9 hPa | 0 mm | - | 521 W/m² | - |
| 1777929780 | 25.56° C | 48% | 1011.9 hPa | 0 mm | - | 619 W/m² | - |
| 1777929478 | 25° C | 49% | 1012.1 hPa | 0 mm | - | 555 W/m² | - |
| 1777929174 | 23.89° C | 52% | 1012 hPa | 0 mm | - | 614 W/m² | - |
| 1777928871 | 23.89° C | 53% | 1012.1 hPa | 0 mm | - | 585 W/m² | - |
| 1777928568 | 23.89° C | 53% | 1012.1 hPa | 0 mm | - | 533 W/m² | - |
| 1777928265 | 24.44° C | 50% | 1012.2 hPa | 0 mm | - | 606 W/m² | - |
| 1777927963 | 23.33° C | 57% | 1012 hPa | 0 mm | - | 645 W/m² | - |
| 1777927661 | 22.78° C | 54% | 1012.3 hPa | 0 mm | - | 696 W/m² | - |
| 1777927359 | 23.33° C | 53% | 1012.3 hPa | 0 mm | - | 740 W/m² | - |
| 1777927058 | 23.89° C | 53% | 1012.2 hPa | 0 mm | - | 683 W/m² | - |
| 1777926755 | 23.89° C | 54% | 1012.6 hPa | 0 mm | - | 576 W/m² | - |
| 1777926455 | 24.44° C | 51% | 1012.2 hPa | 0 mm | - | 582 W/m² | - |
| 1777926152 | 24.44° C | 51% | 1012.2 hPa | 0 mm | - | 593 W/m² | - |
* Rain latest hour (hover to see other rain measurements)
** Current wind speed in m/s (hover to see current wind gust speed)